createdAt,value
2023-01-06T00:02:17.221Z,4.63
2023-01-06T00:04:44.278Z,4.67
2023-01-06T00:07:11.226Z,5.77
2023-01-06T00:09:38.999Z,6.60
2023-01-06T00:12:07.434Z,2.80
2023-01-06T00:14:34.205Z,3.47
2023-01-06T00:17:01.071Z,4.97
2023-01-06T00:19:28.222Z,3.37
2023-01-06T00:21:55.028Z,3.33
2023-01-06T00:24:21.954Z,3.83
2023-01-06T00:26:48.713Z,4.13
2023-01-06T00:29:15.636Z,5.77
2023-01-06T00:31:42.507Z,3.67
2023-01-06T00:34:10.658Z,3.33
2023-01-06T00:36:40.456Z,5.00
2023-01-06T00:39:11.702Z,5.17
2023-01-06T00:41:57.321Z,6.63
2023-01-06T00:44:24.514Z,10.47
2023-01-06T00:46:51.447Z,3.97
2023-01-06T00:49:18.470Z,5.87
2023-01-06T00:51:45.471Z,5.90
2023-01-06T00:54:13.110Z,5.40
2023-01-06T00:56:41.124Z,5.30
2023-01-06T00:59:08.668Z,7.87
2023-01-06T01:01:36.000Z,7.77
2023-01-06T01:04:03.343Z,4.70
2023-01-06T01:06:30.261Z,8.17
2023-01-06T01:08:57.853Z,7.37
2023-01-06T01:11:43.316Z,7.00
2023-01-06T01:14:10.926Z,7.20
2023-01-06T01:16:37.806Z,5.80
2023-01-06T01:19:05.209Z,5.33
2023-01-06T01:21:32.158Z,7.00
2023-01-06T01:23:58.985Z,4.77
2023-01-06T01:26:26.011Z,4.27
2023-01-06T01:28:53.278Z,4.47
2023-01-06T01:31:20.717Z,3.63
2023-01-06T01:33:47.701Z,6.70
2023-01-06T01:36:16.343Z,5.57
2023-01-06T01:38:43.759Z,5.47
2023-01-06T01:41:15.334Z,5.20
2023-01-06T01:43:48.423Z,5.53
2023-01-06T01:46:19.053Z,7.87
2023-01-06T01:48:46.275Z,7.23
2023-01-06T01:51:15.566Z,5.73
2023-01-06T01:53:48.661Z,7.23
2023-01-06T01:56:18.677Z,6.30
2023-01-06T01:58:48.871Z,5.97
2023-01-06T02:01:15.899Z,8.37
2023-01-06T02:03:42.841Z,3.57
2023-01-06T02:06:13.886Z,3.77
2023-01-06T02:08:43.135Z,4.73
2023-01-06T02:11:10.087Z,4.20
2023-01-06T02:13:39.059Z,4.47
2023-01-06T02:16:12.924Z,5.30
2023-01-06T02:18:51.763Z,4.77
2023-01-06T02:21:21.377Z,7.33
2023-01-06T02:23:48.556Z,5.47
2023-01-06T02:26:15.528Z,4.70
2023-01-06T02:29:02.403Z,4.30
2023-01-06T02:31:35.780Z,3.93
2023-01-06T02:34:22.107Z,4.60
2023-01-06T02:36:56.123Z,7.27
2023-01-06T02:39:41.244Z,2.70
2023-01-06T02:42:08.538Z,4.23
2023-01-06T02:44:44.962Z,7.53
2023-01-06T02:47:12.685Z,4.50
2023-01-06T02:49:43.558Z,8.07
2023-01-06T02:52:33.978Z,4.67
2023-01-06T02:55:04.524Z,3.80
2023-01-06T02:57:36.966Z,4.00
2023-01-06T03:00:23.436Z,3.80
2023-01-06T03:02:53.572Z,4.70
2023-01-06T03:05:23.405Z,5.07
2023-01-06T03:07:51.875Z,6.53
2023-01-06T03:10:20.744Z,4.00
2023-01-06T03:12:50.803Z,4.07
2023-01-06T03:15:18.739Z,5.77
2023-01-06T03:17:45.680Z,6.27
2023-01-06T03:20:13.726Z,3.87
2023-01-06T03:22:41.314Z,5.87
2023-01-06T03:25:09.007Z,4.20
2023-01-06T03:27:36.591Z,4.83
2023-01-06T03:30:06.958Z,4.97
2023-01-06T03:32:39.631Z,4.40
2023-01-06T03:35:13.515Z,6.53
2023-01-06T03:37:49.763Z,4.80
2023-01-06T03:40:23.744Z,6.40
2023-01-06T03:43:12.216Z,5.30
2023-01-06T03:45:53.452Z,5.13
2023-01-06T03:48:29.189Z,7.80
2023-01-06T03:51:10.508Z,7.90
2023-01-06T03:53:58.657Z,6.83
2023-01-06T03:56:44.909Z,3.80
2023-01-06T03:59:19.136Z,4.27
2023-01-06T04:01:48.794Z,3.63
2023-01-06T04:04:18.263Z,8.23
2023-01-06T04:06:45.404Z,5.23
2023-01-06T04:09:12.857Z,8.07
2023-01-06T04:11:58.806Z,4.57
2023-01-06T04:14:26.254Z,4.20
2023-01-06T04:16:53.484Z,3.80
2023-01-06T04:19:21.078Z,5.63
2023-01-06T04:21:48.007Z,5.30
2023-01-06T04:24:14.973Z,5.40
2023-01-06T04:26:41.820Z,6.50
2023-01-06T04:29:08.664Z,5.47
2023-01-06T04:31:37.770Z,3.83
2023-01-06T04:34:04.862Z,5.43
2023-01-06T04:36:31.867Z,7.47
2023-01-06T04:38:59.153Z,5.93
2023-01-06T04:41:26.761Z,9.87
2023-01-06T04:43:53.604Z,8.33
2023-01-06T04:46:20.453Z,5.93
2023-01-06T04:48:47.414Z,5.13
2023-01-06T04:51:14.451Z,5.37
2023-01-06T04:53:41.744Z,6.30
2023-01-06T04:56:09.868Z,5.17
2023-01-06T04:58:37.128Z,6.40
2023-01-06T05:01:05.496Z,12.67
2023-01-06T05:03:33.526Z,31.77
2023-01-06T05:06:01.588Z,10.27
2023-01-06T05:08:28.462Z,13.20
2023-01-06T05:11:05.792Z,8.60
2023-01-06T05:13:32.685Z,8.13
2023-01-06T05:15:59.550Z,5.03
2023-01-06T05:18:26.402Z,4.00
2023-01-06T05:20:54.455Z,5.87
2023-01-06T05:23:21.658Z,5.53
2023-01-06T05:25:50.457Z,5.37
2023-01-06T05:28:17.439Z,3.97
2023-01-06T05:30:44.372Z,6.80
2023-01-06T05:33:11.665Z,7.67
2023-01-06T05:35:38.428Z,7.73
2023-01-06T05:38:05.385Z,7.30
2023-01-06T05:40:32.289Z,8.97
2023-01-06T05:42:59.240Z,13.13
2023-01-06T05:45:26.502Z,11.03
2023-01-06T05:47:53.471Z,6.07
2023-01-06T05:50:20.278Z,7.03
2023-01-06T05:52:50.465Z,6.77
2023-01-06T05:55:17.325Z,6.53
2023-01-06T05:57:44.287Z,6.10
2023-01-06T06:00:11.556Z,6.83
2023-01-06T06:02:41.193Z,7.23
2023-01-06T06:05:09.262Z,8.30
2023-01-06T06:07:36.246Z,6.67
2023-01-06T06:10:03.116Z,4.17
2023-01-06T06:12:30.038Z,5.17
2023-01-06T06:14:56.866Z,4.07
2023-01-06T06:17:24.410Z,15.10
2023-01-06T06:19:51.642Z,11.20
2023-01-06T06:22:18.801Z,6.60
2023-01-06T06:24:45.831Z,9.23
2023-01-06T06:27:12.739Z,5.27
2023-01-06T06:29:39.555Z,12.83
2023-01-06T06:32:06.425Z,5.67
2023-01-06T06:34:33.233Z,6.37
2023-01-06T06:37:00.217Z,7.33
2023-01-06T06:39:27.080Z,5.07
2023-01-06T06:41:53.927Z,5.47
2023-01-06T06:44:20.787Z,4.90
2023-01-06T06:46:47.661Z,5.53
2023-01-06T06:49:14.536Z,5.10
2023-01-06T06:51:41.720Z,4.80
2023-01-06T06:54:08.883Z,7.87
2023-01-06T06:56:35.767Z,6.10
2023-01-06T06:59:02.537Z,5.10
2023-01-06T07:01:31.995Z,3.40
2023-01-06T07:03:59.139Z,5.07
2023-01-06T07:06:28.831Z,6.07
2023-01-06T07:08:55.901Z,5.70
2023-01-06T07:11:22.896Z,8.23
2023-01-06T07:13:49.764Z,9.10
2023-01-06T07:16:16.898Z,10.13
2023-01-06T07:18:43.952Z,6.57
2023-01-06T07:21:10.967Z,7.97
2023-01-06T07:23:38.442Z,5.37
2023-01-06T07:26:05.337Z,5.20
2023-01-06T07:28:32.710Z,5.70
2023-01-06T07:31:00.033Z,9.07
2023-01-06T07:33:26.989Z,6.80
2023-01-06T07:35:54.494Z,6.70
2023-01-06T07:38:21.635Z,13.57
2023-01-06T07:40:48.924Z,8.57
2023-01-06T07:43:17.214Z,11.37
2023-01-06T07:45:46.493Z,7.77
2023-01-06T07:48:14.222Z,7.77
2023-01-06T07:50:41.059Z,9.73
2023-01-06T07:53:09.126Z,13.73
2023-01-06T07:55:36.120Z,14.20
2023-01-06T07:58:06.787Z,6.70
2023-01-06T08:00:34.084Z,6.70
2023-01-06T08:03:03.876Z,4.17
2023-01-06T08:05:30.924Z,5.63
2023-01-06T08:07:57.707Z,5.80
2023-01-06T08:10:24.602Z,4.87
2023-01-06T08:12:51.442Z,3.63
2023-01-06T08:15:18.410Z,3.03
2023-01-06T08:17:45.237Z,6.27
2023-01-06T08:20:12.061Z,5.03
2023-01-06T08:22:39.006Z,5.57
2023-01-06T08:25:06.117Z,3.87
2023-01-06T08:27:32.885Z,4.43
2023-01-06T08:29:59.771Z,5.67
2023-01-06T08:32:26.678Z,3.97
2023-01-06T08:34:53.547Z,4.27
2023-01-06T08:37:20.570Z,4.53
2023-01-06T08:39:47.421Z,5.83
2023-01-06T08:42:14.592Z,2.80
2023-01-06T08:44:41.732Z,7.00
2023-01-06T08:47:08.737Z,3.63
2023-01-06T08:49:35.542Z,3.37
2023-01-06T08:52:02.583Z,8.50
2023-01-06T08:54:29.947Z,4.17
2023-01-06T08:56:57.546Z,4.50
2023-01-06T08:59:24.387Z,7.57
2023-01-06T09:01:52.160Z,3.40
2023-01-06T09:04:19.272Z,4.33
2023-01-06T09:06:47.607Z,4.07
2023-01-06T09:09:14.911Z,4.77
2023-01-06T09:11:45.367Z,4.80
2023-01-06T09:14:14.346Z,7.13
2023-01-06T09:16:41.459Z,5.00
2023-01-06T09:19:10.586Z,6.17
2023-01-06T09:21:37.969Z,5.07
2023-01-06T09:24:05.163Z,11.20
2023-01-06T09:26:32.084Z,6.77
2023-01-06T09:28:59.061Z,6.67
2023-01-06T09:31:26.941Z,8.13
2023-01-06T09:33:54.432Z,7.83
2023-01-06T09:36:21.539Z,10.73
2023-01-06T09:38:48.386Z,9.10
2023-01-06T09:41:30.557Z,5.90
2023-01-06T09:44:06.349Z,12.53
2023-01-06T09:46:35.874Z,13.00
2023-01-06T09:49:02.825Z,12.47
2023-01-06T09:51:30.287Z,11.57
2023-01-06T09:54:00.473Z,26.20
2023-01-06T09:56:27.913Z,12.50
2023-01-06T09:59:00.376Z,11.97
2023-01-06T10:01:33.335Z,10.93
2023-01-06T10:04:01.016Z,8.90
2023-01-06T10:06:33.628Z,10.57
2023-01-06T10:09:06.580Z,7.50
2023-01-06T10:11:50.895Z,9.93
2023-01-06T10:14:30.996Z,7.97
2023-01-06T10:16:57.921Z,8.17
2023-01-06T10:19:24.738Z,7.53
2023-01-06T10:22:07.387Z,8.57
2023-01-06T10:24:34.149Z,5.20
2023-01-06T10:27:10.311Z,8.07
2023-01-06T10:29:37.933Z,6.37
2023-01-06T10:32:05.690Z,6.70
2023-01-06T10:34:34.316Z,7.50
2023-01-06T10:37:03.952Z,7.60
2023-01-06T10:39:32.059Z,8.33
2023-01-06T10:42:23.182Z,7.10
2023-01-06T10:44:50.149Z,8.47
2023-01-06T10:47:28.387Z,12.07
2023-01-06T10:49:55.534Z,10.60
2023-01-06T10:52:23.125Z,8.47
2023-01-06T10:54:55.073Z,8.80
2023-01-06T10:57:29.972Z,7.90
2023-01-06T11:00:10.414Z,9.17
2023-01-06T11:02:38.192Z,8.07
2023-01-06T11:05:05.726Z,9.27
2023-01-06T11:07:33.346Z,10.77
2023-01-06T11:10:00.895Z,9.77
2023-01-06T11:12:29.210Z,11.30
2023-01-06T11:14:57.992Z,10.60
2023-01-06T11:17:25.666Z,10.37
2023-01-06T11:20:11.175Z,14.17
2023-01-06T11:22:40.151Z,10.70
2023-01-06T11:25:22.306Z,10.57
2023-01-06T11:27:50.428Z,7.27
2023-01-06T11:30:21.426Z,16.33
2023-01-06T11:32:48.307Z,9.20
2023-01-06T11:35:22.691Z,9.67
2023-01-06T11:37:49.666Z,9.87
2023-01-06T11:40:25.413Z,10.40
2023-01-06T11:42:54.934Z,7.90
2023-01-06T11:45:35.697Z,11.20
2023-01-06T11:48:07.458Z,9.23
2023-01-06T11:50:34.700Z,8.03
2023-01-06T11:53:03.067Z,11.77
2023-01-06T11:55:31.006Z,12.53
2023-01-06T11:58:00.654Z,9.93
2023-01-06T12:00:36.873Z,11.83
2023-01-06T12:03:22.631Z,12.60
2023-01-06T12:05:49.585Z,11.53
2023-01-06T12:08:16.515Z,13.77
2023-01-06T12:10:45.538Z,13.30
2023-01-06T12:13:15.489Z,11.57
2023-01-06T12:15:44.500Z,12.83
2023-01-06T12:18:19.173Z,12.67
2023-01-06T12:20:48.135Z,14.83
2023-01-06T12:23:19.797Z,13.67
2023-01-06T12:25:48.133Z,14.50
2023-01-06T12:28:16.953Z,12.03
2023-01-06T12:30:53.869Z,12.73
2023-01-06T12:33:20.778Z,15.53
2023-01-06T12:35:49.927Z,15.50
2023-01-06T12:38:25.731Z,18.07
2023-01-06T12:40:55.186Z,19.10
2023-01-06T12:43:25.760Z,18.03
2023-01-06T12:46:04.843Z,18.63
2023-01-06T12:48:45.855Z,20.30
2023-01-06T12:51:35.687Z,19.23
2023-01-06T12:54:06.001Z,18.27
2023-01-06T12:56:56.386Z,25.40
2023-01-06T12:59:29.657Z,19.63
2023-01-06T13:02:02.019Z,19.40
2023-01-06T13:04:49.102Z,16.97
2023-01-06T13:07:19.124Z,22.20
2023-01-06T13:09:49.026Z,15.77
2023-01-06T13:12:25.122Z,27.50
2023-01-06T13:14:57.671Z,24.23
2023-01-06T13:17:28.960Z,19.60
2023-01-06T13:19:57.986Z,18.83
2023-01-06T13:22:27.892Z,21.33
2023-01-06T13:25:14.056Z,21.20
2023-01-06T13:27:58.492Z,21.83
2023-01-06T13:30:40.730Z,22.87
2023-01-06T13:33:15.698Z,20.20
2023-01-06T13:36:01.901Z,20.13
2023-01-06T13:38:37.664Z,22.90
2023-01-06T13:41:06.440Z,25.23
2023-01-06T13:43:34.353Z,20.97
2023-01-06T13:46:07.443Z,24.93
2023-01-06T13:48:39.485Z,20.93
2023-01-06T13:51:07.932Z,23.00
2023-01-06T13:53:38.964Z,19.37
2023-01-06T13:56:26.142Z,21.07
2023-01-06T13:59:13.180Z,25.63
2023-01-06T14:01:40.503Z,21.30
2023-01-06T14:04:25.935Z,21.87
2023-01-06T14:06:52.918Z,23.17
2023-01-06T14:09:20.612Z,16.63
2023-01-06T14:11:47.950Z,23.73
2023-01-06T14:14:25.426Z,21.73
2023-01-06T14:16:53.496Z,22.00
2023-01-06T14:19:29.498Z,21.30
2023-01-06T14:22:13.270Z,21.13
2023-01-06T14:24:42.182Z,20.67
2023-01-06T14:27:11.730Z,23.77
2023-01-06T14:29:45.103Z,20.93
2023-01-06T14:32:15.470Z,18.73
2023-01-06T14:34:56.466Z,17.63
2023-01-06T14:37:43.749Z,17.80
2023-01-06T14:40:27.152Z,16.07
2023-01-06T14:42:55.519Z,17.10
2023-01-06T14:45:25.180Z,20.93
2023-01-06T14:48:12.252Z,13.90
2023-01-06T14:50:47.162Z,13.40
2023-01-06T14:53:14.348Z,14.80
2023-01-06T14:55:45.162Z,19.77
2023-01-06T14:58:32.348Z,15.73
2023-01-06T15:01:00.094Z,17.77
2023-01-06T15:03:28.082Z,15.47
2023-01-06T15:06:10.447Z,16.97
2023-01-06T15:08:37.634Z,17.67
2023-01-06T15:11:33.824Z,14.57
2023-01-06T15:14:01.014Z,13.50
2023-01-06T15:16:36.626Z,16.10
2023-01-06T15:19:07.097Z,17.23
2023-01-06T15:21:39.109Z,14.03
2023-01-06T15:24:06.383Z,18.43
2023-01-06T15:26:33.251Z,16.07
2023-01-06T15:29:07.311Z,16.53
2023-01-06T15:31:40.141Z,17.18
2023-01-06T15:34:10.136Z,21.70
2023-01-06T15:36:38.130Z,13.77
2023-01-06T15:39:05.629Z,17.40
2023-01-06T15:41:33.645Z,17.17
2023-01-06T15:44:01.703Z,16.73
2023-01-06T15:46:36.248Z,16.47
2023-01-06T15:49:03.349Z,17.70
2023-01-06T15:51:30.246Z,15.80
2023-01-06T15:53:58.497Z,18.63
2023-01-06T15:56:26.729Z,19.93
2023-01-06T15:58:54.853Z,13.07
2023-01-06T16:01:22.834Z,13.93
2023-01-06T16:03:54.314Z,16.27
2023-01-06T16:06:25.891Z,17.07
2023-01-06T16:08:52.905Z,16.30
2023-01-06T16:11:48.363Z,14.10
2023-01-06T16:14:30.823Z,15.10
2023-01-06T16:17:03.643Z,17.23
2023-01-06T16:19:30.824Z,18.73
2023-01-06T16:21:59.081Z,14.53
2023-01-06T16:24:27.519Z,14.80
2023-01-06T16:26:56.375Z,16.37
2023-01-06T16:29:29.117Z,16.40
2023-01-06T16:31:56.691Z,18.80
2023-01-06T16:34:31.602Z,15.30
2023-01-06T16:36:59.425Z,18.90
2023-01-06T16:39:26.668Z,18.30
2023-01-06T16:41:59.396Z,22.17
2023-01-06T16:44:26.654Z,16.90
2023-01-06T16:46:53.603Z,20.37
2023-01-06T16:49:21.614Z,19.10
2023-01-06T16:51:48.701Z,16.00
2023-01-06T16:54:18.815Z,18.47
2023-01-06T16:56:46.432Z,21.57
2023-01-06T16:59:14.602Z,19.03
2023-01-06T17:01:42.140Z,21.87
2023-01-06T17:04:11.295Z,24.47
2023-01-06T17:06:42.776Z,16.80
2023-01-06T17:09:19.979Z,17.90
2023-01-06T17:11:47.696Z,18.53
2023-01-06T17:14:15.389Z,18.60
2023-01-06T17:16:43.012Z,19.30
2023-01-06T17:19:23.386Z,16.27
2023-01-06T17:21:53.053Z,17.93
2023-01-06T17:24:23.539Z,21.87
2023-01-06T17:26:57.594Z,18.53
2023-01-06T17:29:27.272Z,19.33
2023-01-06T17:31:58.102Z,18.10
2023-01-06T17:34:31.917Z,20.15
2023-01-06T17:37:03.779Z,19.47
2023-01-06T17:39:32.643Z,16.07
2023-01-06T17:42:01.921Z,20.53
2023-01-06T17:44:46.168Z,16.30
2023-01-06T17:47:15.881Z,17.50
2023-01-06T17:49:55.073Z,20.57
2023-01-06T17:52:23.353Z,22.40
2023-01-06T17:55:11.138Z,16.83
2023-01-06T17:57:39.151Z,23.70
2023-01-06T18:00:16.054Z,22.50
2023-01-06T18:02:47.159Z,18.90
2023-01-06T18:05:26.392Z,22.50
2023-01-06T18:08:05.491Z,20.73
2023-01-06T18:10:33.433Z,23.60
2023-01-06T18:13:13.103Z,25.93
2023-01-06T18:15:40.133Z,26.03
2023-01-06T18:18:18.444Z,22.63
2023-01-06T18:20:53.569Z,21.57
2023-01-06T18:23:22.506Z,24.30
2023-01-06T18:25:52.768Z,23.53
2023-01-06T18:28:19.695Z,23.47
2023-01-06T18:30:48.136Z,19.50
2023-01-06T18:33:16.272Z,25.37
2023-01-06T18:35:43.801Z,25.03
2023-01-06T18:38:10.741Z,22.20
2023-01-06T18:40:38.243Z,24.17
2023-01-06T18:43:40.770Z,19.27
2023-01-06T18:46:15.329Z,17.00
2023-01-06T18:48:42.858Z,19.57
2023-01-06T18:51:18.772Z,21.63
2023-01-06T18:53:47.804Z,22.43
2023-01-06T18:56:18.971Z,23.23
2023-01-06T18:58:47.890Z,20.57
2023-01-06T19:01:40.804Z,22.87
2023-01-06T19:04:29.177Z,29.43
2023-01-06T19:07:05.804Z,22.23
2023-01-06T19:09:32.685Z,18.83
2023-01-06T19:12:09.862Z,28.03
2023-01-06T19:14:38.756Z,31.20
2023-01-06T19:17:13.954Z,23.00
2023-01-06T19:19:41.492Z,24.17
2023-01-06T19:22:14.292Z,17.67
2023-01-06T19:24:43.786Z,16.57
2023-01-06T19:27:25.787Z,16.50
2023-01-06T19:29:54.763Z,16.10
2023-01-06T19:32:21.876Z,20.77
2023-01-06T19:34:48.754Z,17.47
2023-01-06T19:37:17.125Z,19.40
2023-01-06T19:39:50.880Z,19.83
2023-01-06T19:42:19.524Z,20.63
2023-01-06T19:44:48.175Z,17.40
2023-01-06T19:47:25.490Z,20.33
2023-01-06T19:49:56.085Z,18.07
2023-01-06T19:52:22.936Z,20.07
2023-01-06T19:54:49.757Z,19.83
2023-01-06T19:57:23.931Z,19.40
2023-01-06T19:59:51.028Z,20.40
2023-01-06T20:02:20.668Z,20.53
2023-01-06T20:04:47.704Z,21.17
2023-01-06T20:07:14.653Z,17.70
2023-01-06T20:09:41.431Z,23.67
2023-01-06T20:12:08.397Z,21.77
2023-01-06T20:14:35.355Z,22.87
2023-01-06T20:17:02.128Z,17.23
2023-01-06T20:19:29.134Z,20.20
2023-01-06T20:21:56.112Z,21.60
2023-01-06T20:24:22.949Z,22.77
2023-01-06T20:26:49.958Z,19.00
2023-01-06T20:29:16.714Z,18.77
2023-01-06T20:31:43.634Z,20.10
2023-01-06T20:34:10.525Z,19.10
2023-01-06T20:36:37.513Z,22.00
2023-01-06T20:39:04.901Z,21.93
2023-01-06T20:41:31.869Z,21.83
2023-01-06T20:43:58.633Z,26.07
2023-01-06T20:46:25.681Z,24.33
2023-01-06T20:48:52.497Z,23.80
2023-01-06T20:51:19.273Z,21.00
2023-01-06T20:53:46.347Z,30.60
2023-01-06T20:56:13.282Z,22.30
2023-01-06T20:58:40.144Z,23.23
2023-01-06T21:01:07.175Z,24.43
2023-01-06T21:03:34.208Z,26.17
2023-01-06T21:06:01.265Z,24.13
2023-01-06T21:08:28.174Z,24.73
2023-01-06T21:10:55.021Z,31.47
2023-01-06T21:13:24.028Z,26.57
2023-01-06T21:15:51.204Z,25.30
2023-01-06T21:18:17.992Z,26.43
2023-01-06T21:20:45.028Z,31.07
2023-01-06T21:23:11.909Z,24.60
2023-01-06T21:25:38.721Z,27.60
2023-01-06T21:28:05.666Z,28.20
2023-01-06T21:30:32.490Z,24.00
2023-01-06T21:32:59.524Z,26.53
2023-01-06T21:35:26.511Z,29.47
2023-01-06T21:37:53.358Z,30.40
2023-01-06T21:40:20.289Z,30.90
2023-01-06T21:43:06.213Z,27.70
2023-01-06T21:45:33.134Z,31.13
2023-01-06T21:47:59.890Z,31.40
2023-01-06T21:50:27.159Z,27.97
2023-01-06T21:52:54.160Z,31.97
2023-01-06T21:55:21.003Z,27.77
2023-01-06T21:57:48.213Z,27.73
2023-01-06T22:00:15.383Z,29.40
2023-01-06T22:02:42.797Z,28.33
2023-01-06T22:05:10.060Z,28.50
2023-01-06T22:07:40.022Z,25.73
2023-01-06T22:10:07.829Z,29.83
2023-01-06T22:12:34.795Z,27.17
2023-01-06T22:15:01.790Z,29.60
2023-01-06T22:17:28.656Z,28.77
2023-01-06T22:19:56.015Z,27.30
2023-01-06T22:22:23.464Z,25.37
2023-01-06T22:24:52.035Z,30.33
2023-01-06T22:27:18.893Z,32.73
2023-01-06T22:29:45.768Z,27.63
2023-01-06T22:32:12.690Z,25.80
2023-01-06T22:34:39.546Z,25.90
2023-01-06T22:37:06.476Z,24.13
2023-01-06T22:39:33.304Z,23.93
2023-01-06T22:42:00.492Z,23.67
2023-01-06T22:44:27.437Z,23.80
2023-01-06T22:46:54.687Z,22.23
2023-01-06T22:49:21.712Z,19.23
2023-01-06T22:51:48.587Z,19.90
2023-01-06T22:54:15.822Z,22.60
2023-01-06T22:56:42.683Z,22.03
2023-01-06T22:59:09.874Z,21.73
2023-01-06T23:01:36.713Z,20.90
2023-01-06T23:04:04.169Z,22.37
2023-01-06T23:06:31.155Z,21.83
2023-01-06T23:09:00.686Z,19.87
2023-01-06T23:11:28.493Z,22.67
2023-01-06T23:13:56.822Z,23.87
2023-01-06T23:16:26.899Z,21.87
2023-01-06T23:18:54.274Z,22.47
2023-01-06T23:21:22.612Z,22.83
2023-01-06T23:23:50.412Z,27.00
2023-01-06T23:26:18.608Z,31.70
2023-01-06T23:28:45.650Z,21.30
2023-01-06T23:31:16.821Z,22.13
2023-01-06T23:33:45.175Z,26.17
2023-01-06T23:36:12.774Z,24.27
2023-01-06T23:38:39.764Z,22.20
2023-01-06T23:41:08.412Z,22.83
2023-01-06T23:43:35.962Z,21.90
2023-01-06T23:46:03.985Z,24.93
2023-01-06T23:48:31.512Z,19.17
2023-01-06T23:50:58.923Z,22.67
2023-01-06T23:53:26.824Z,19.73
2023-01-06T23:55:54.443Z,22.60
2023-01-06T23:58:21.480Z,20.07
